Time;durP1;ratioP1;P1;durP2;ratioP2;P2;SDS_P1;SDS_P2;PMS_P1;PMS_P2;Temp;Humidity;BMP_temperature;BMP_pressure;BME280_temperature;BME280_humidity;BME280_pressure;Samples;Min_cycle;Max_cycle;Signal;HPM_P1;HPM_P2
2021/03/31 00:01:36;;;;;;;13.73;7.47;;;;;;;14.52;35.89;97576.75;5030040;28;20200;-67
2021/03/31 00:04:02;;;;;;;11.20;7.13;;;;;;;14.51;36.01;97582.19;5023912;28;20204;-67
2021/03/31 00:06:28;;;;;;;17.23;7.80;;;;;;;14.43;35.94;97573.28;5013237;28;20313;-67
2021/03/31 00:08:53;;;;;;;19.27;8.30;;;;;;;14.34;36.20;97574.31;5029688;28;20518;-66
2021/03/31 00:11:19;;;;;;;13.17;7.83;;;;;;;14.29;36.63;97572.16;5025117;28;20263;-68
2021/03/31 00:13:48;;;;;;;18.53;8.30;;;;;;;14.35;36.41;97575.13;5032739;28;20207;-67
2021/03/31 00:16:14;;;;;;;8.07;6.20;;;;;;;14.36;36.36;97571.50;5033845;28;20505;-67
2021/03/31 00:18:39;;;;;;;13.07;7.87;;;;;;;14.35;36.61;97569.88;5030635;28;20423;-66
2021/03/31 00:21:05;;;;;;;19.97;8.23;;;;;;;14.28;36.55;97570.53;5033273;28;20771;-67
2021/03/31 00:23:31;;;;;;;16.10;7.70;;;;;;;14.26;36.31;97569.84;5034574;28;20227;-68
2021/03/31 00:25:57;;;;;;;13.90;7.77;;;;;;;14.30;36.03;97559.81;5034328;28;20261;-69
2021/03/31 00:28:24;;;;;;;13.43;7.13;;;;;;;14.47;36.05;97563.25;5033954;28;20414;-69
2021/03/31 00:30:51;;;;;;;22.70;8.03;;;;;;;14.52;36.23;97555.63;5013382;28;20291;-69
2021/03/31 00:33:17;;;;;;;11.40;7.47;;;;;;;14.50;36.06;97560.25;5033160;28;20446;-69
2021/03/31 00:35:43;;;;;;;12.77;8.00;;;;;;;14.41;36.47;97553.38;5033942;28;20454;-69
2021/03/31 00:38:09;;;;;;;18.90;8.67;;;;;;;14.44;36.43;97547.75;5034547;28;20450;-68
2021/03/31 00:40:46;;;;;;;17.50;7.90;;;;;;;14.34;36.56;97557.66;5033712;28;20199;-67
2021/03/31 00:43:12;;;;;;;14.00;8.17;;;;;;;14.12;37.19;97558.19;5034031;28;20433;-67
2021/03/31 00:45:38;;;;;;;13.20;8.40;;;;;;;14.05;37.20;97553.75;5034183;28;20418;-67
2021/03/31 00:48:04;;;;;;;16.87;9.30;;;;;;;13.96;37.60;97551.13;5027405;28;20449;-68
2021/03/31 00:50:30;;;;;;;18.23;9.10;;;;;;;13.92;37.72;97541.91;5033159;28;20422;-68
2021/03/31 00:52:57;;;;;;;12.23;8.47;;;;;;;13.90;37.56;97553.59;5033718;28;20269;-67
2021/03/31 00:55:25;;;;;;;12.90;8.23;;;;;;;13.78;38.25;97548.66;5033627;28;20446;-68
2021/03/31 00:57:51;;;;;;;16.27;8.90;;;;;;;13.83;38.14;97551.59;5028183;28;20427;-69
2021/03/31 01:00:17;;;;;;;17.37;9.70;;;;;;;13.78;38.29;97547.81;5012551;28;20461;-68
2021/03/31 01:02:43;;;;;;;16.10;9.87;;;;;;;13.79;38.19;97549.47;5033832;28;20503;-68
2021/03/31 01:05:29;;;;;;;25.67;10.20;;;;;;;13.71;37.57;97542.38;5033922;28;20426;-67
2021/03/31 01:07:55;;;;;;;18.77;10.10;;;;;;;13.70;37.80;97538.09;5033145;28;20175;-67
2021/03/31 01:10:27;;;;;;;17.30;10.37;;;;;;;13.62;37.81;97538.91;5032669;28;20422;-67
2021/03/31 01:13:22;;;;;;;17.10;9.23;;;;;;;13.59;37.98;97544.53;5031867;28;20971;-67
2021/03/31 01:16:00;;;;;;;12.97;8.40;;;;;;;13.51;38.22;97541.88;5031998;28;20418;-67
2021/03/31 01:18:26;;;;;;;22.07;10.37;;;;;;;13.47;38.29;97532.66;5033491;28;20426;-66
2021/03/31 01:21:06;;;;;;;24.83;9.90;;;;;;;13.40;38.69;97529.84;5029811;28;20539;-66
2021/03/31 01:24:09;;;;;;;18.80;9.33;;;;;;;13.40;38.96;97529.03;5033450;28;20218;-67
2021/03/31 01:26:39;;;;;;;19.53;9.37;;;;;;;13.40;38.57;97529.84;5023795;28;20411;-68
2021/03/31 01:29:27;;;;;;;17.80;10.47;;;;;;;13.42;38.65;97524.41;5027342;28;20442;-67
2021/03/31 01:32:20;;;;;;;17.53;10.90;;;;;;;13.35;38.88;97522.41;5033304;28;20428;-66
2021/03/31 01:34:56;;;;;;;14.73;9.07;;;;;;;13.23;38.76;97517.59;5032468;28;20836;-67
2021/03/31 01:37:25;;;;;;;20.07;10.13;;;;;;;13.23;38.77;97528.13;5032402;28;21152;-67
2021/03/31 01:39:53;;;;;;;17.23;9.23;;;;;;;13.22;38.78;97524.69;5031018;28;20445;-67
2021/03/31 01:42:20;;;;;;;17.40;11.07;;;;;;;13.21;38.55;97525.69;5031608;28;20577;-67
2021/03/31 01:44:48;;;;;;;20.40;9.10;;;;;;;13.23;38.81;97509.72;5030825;28;20877;-68
2021/03/31 01:47:14;;;;;;;19.07;9.33;;;;;;;13.21;39.05;97510.69;5026374;28;20517;-66
2021/03/31 01:49:41;;;;;;;16.30;9.27;;;;;;;13.17;39.30;97503.28;5026258;28;20427;-68
2021/03/31 01:52:07;;;;;;;20.43;8.13;;;;;;;13.18;39.34;97504.94;5030639;28;20544;-66
2021/03/31 01:54:34;;;;;;;14.10;8.37;;;;;;;13.18;39.48;97503.13;5033188;28;20430;-67
2021/03/31 01:57:00;;;;;;;15.17;7.50;;;;;;;13.19;39.97;97503.97;5031228;28;20552;-67
2021/03/31 01:59:26;;;;;;;14.10;7.30;;;;;;;13.14;40.29;97498.34;5024030;28;20461;-67
2021/03/31 02:01:53;;;;;;;14.70;8.90;;;;;;;13.10;40.58;97507.56;5030605;28;20499;-68
2021/03/31 02:04:20;;;;;;;15.63;8.57;;;;;;;13.02;40.88;97505.72;5028946;28;20210;-68
2021/03/31 02:06:46;;;;;;;11.60;7.37;;;;;;;12.99;40.65;97506.84;5031464;28;20434;-67
2021/03/31 02:09:13;;;;;;;18.70;8.67;;;;;;;12.84;41.08;97498.75;5014071;28;20473;-67
2021/03/31 02:11:42;;;;;;;14.83;8.73;;;;;;;12.83;40.93;97497.13;4996792;28;20249;-67
2021/03/31 02:14:08;;;;;;;13.77;7.53;;;;;;;12.77;40.93;97487.25;5032009;28;20842;-66
2021/03/31 02:16:35;;;;;;;18.10;8.70;;;;;;;12.51;41.59;97482.03;5031367;28;20550;-67
2021/03/31 02:19:01;;;;;;;16.67;8.77;;;;;;;12.37;42.05;97486.91;5027708;28;20504;-67
2021/03/31 02:21:27;;;;;;;14.60;8.63;;;;;;;12.47;41.62;97478.09;5027085;28;20494;-66
2021/03/31 02:23:54;;;;;;;23.80;9.27;;;;;;;12.42;41.29;97484.63;5028714;28;20219;-66
2021/03/31 02:26:19;;;;;;;18.30;8.87;;;;;;;12.36;41.59;97485.25;5030700;28;20434;-66
2021/03/31 02:28:45;;;;;;;13.60;8.80;;;;;;;12.38;41.41;97480.66;5028485;28;20903;-67
2021/03/31 02:31:13;;;;;;;20.57;9.97;;;;;;;12.42;40.81;97482.00;5030944;28;20614;-67
2021/03/31 02:33:39;;;;;;;15.20;9.00;;;;;;;12.47;40.93;97473.66;5030513;28;20223;-68
2021/03/31 02:36:05;;;;;;;19.63;9.90;;;;;;;12.43;40.86;97470.50;5031550;28;20463;-66
2021/03/31 02:38:31;;;;;;;20.53;10.57;;;;;;;12.44;41.00;97472.16;5030064;28;20187;-67
2021/03/31 02:40:57;;;;;;;15.77;9.33;;;;;;;12.46;41.04;97477.25;5030988;28;20516;-67
2021/03/31 02:43:24;;;;;;;15.57;9.33;;;;;;;12.44;40.92;97469.53;5030511;28;20859;-66
2021/03/31 02:45:55;;;;;;;17.70;9.57;;;;;;;12.41;41.21;97466.41;5030146;28;20426;-67
2021/03/31 02:48:22;;;;;;;14.37;8.50;;;;;;;12.43;41.51;97470.50;5017314;28;20517;-66
2021/03/31 02:50:48;;;;;;;23.80;10.23;;;;;;;12.38;41.41;97462.25;5030846;28;20419;-68
2021/03/31 02:53:15;;;;;;;20.70;10.43;;;;;;;12.34;41.29;97455.69;5030794;28;20446;-68
2021/03/31 02:55:41;;;;;;;16.80;9.20;;;;;;;12.40;41.35;97454.25;5031788;28;20426;-68
2021/03/31 02:58:08;;;;;;;14.10;8.70;;;;;;;12.43;41.22;97457.38;5024027;28;20927;-67
2021/03/31 03:00:34;;;;;;;18.40;8.77;;;;;;;12.43;40.90;97454.75;5011427;28;20459;-67
2021/03/31 03:03:01;;;;;;;17.03;8.77;;;;;;;12.37;41.43;97450.09;5029808;28;20438;-66
2021/03/31 03:05:27;;;;;;;16.20;8.50;;;;;;;12.35;40.77;97457.31;5030261;28;20546;-67
2021/03/31 03:07:53;;;;;;;13.30;8.23;;;;;;;12.30;41.31;97451.72;5014829;28;20451;-67
2021/03/31 03:10:19;;;;;;;14.27;8.80;;;;;;;12.19;41.62;97446.75;5011685;28;20419;-68
2021/03/31 03:12:53;;;;;;;15.40;8.47;;;;;;;12.18;41.97;97439.84;5011358;28;20207;-68
2021/03/31 03:15:20;;;;;;;18.47;8.40;;;;;;;12.22;42.28;97451.69;5010661;28;20259;-67
2021/03/31 03:17:47;;;;;;;14.30;8.60;;;;;;;12.23;41.92;97448.06;5010276;28;20451;-67
2021/03/31 03:20:13;;;;;;;17.23;7.23;;;;;;;12.26;42.10;97445.97;5010109;28;20447;-67
2021/03/31 03:22:43;;;;;;;21.60;8.33;;;;;;;12.27;41.76;97441.53;5010593;28;20811;-67
2021/03/31 03:25:10;;;;;;;15.03;7.90;;;;;;;12.22;42.22;97446.44;5001955;28;20514;-67
2021/03/31 03:27:39;;;;;;;13.43;7.27;;;;;;;12.15;42.34;97446.25;4992038;28;20428;-68
2021/03/31 03:30:07;;;;;;;13.57;7.57;;;;;;;12.12;42.63;97439.47;4993516;28;20419;-67
2021/03/31 03:32:33;;;;;;;13.57;7.43;;;;;;;12.12;42.61;97451.81;5010273;28;20436;-67
2021/03/31 03:34:59;;;;;;;12.00;7.30;;;;;;;12.08;42.29;97451.28;5011369;28;20426;-68
2021/03/31 03:37:24;;;;;;;20.80;8.57;;;;;;;12.08;42.70;97456.56;5009951;28;20501;-68
2021/03/31 03:39:50;;;;;;;13.33;6.73;;;;;;;12.13;42.25;97449.00;5012327;28;20176;-68
2021/03/31 03:42:16;;;;;;;15.27;7.97;;;;;;;12.09;42.59;97452.94;5011365;28;20200;-69
2021/03/31 03:44:41;;;;;;;12.23;7.13;;;;;;;12.14;42.04;97448.03;5011226;28;20198;-67
2021/03/31 03:47:07;;;;;;;17.33;9.03;;;;;;;12.14;42.55;97439.34;5010707;28;20228;-67
2021/03/31 03:49:37;;;;;;;12.43;7.37;;;;;;;12.09;42.73;97450.31;5009877;28;20192;-67
2021/03/31 03:52:05;;;;;;;13.27;7.83;;;;;;;12.03;42.72;97443.03;5013370;28;20454;-68
2021/03/31 03:54:31;;;;;;;15.53;8.20;;;;;;;11.97;42.72;97446.28;5011859;28;20806;-68
2021/03/31 03:56:57;;;;;;;12.70;8.07;;;;;;;11.74;43.36;97449.41;5010298;28;20426;-69
2021/03/31 03:59:26;;;;;;;10.97;6.97;;;;;;;11.78;43.33;97450.75;5014159;28;20801;-68
2021/03/31 04:01:52;;;;;;;15.40;8.00;;;;;;;11.81;43.41;97444.34;5009105;28;20258;-67
2021/03/31 04:04:18;;;;;;;14.63;7.70;;;;;;;11.84;43.15;97444.06;5014476;28;20435;-68
2021/03/31 04:06:44;;;;;;;10.63;7.00;;;;;;;11.83;43.11;97445.88;5014377;28;20191;-69
2021/03/31 04:09:10;;;;;;;14.93;7.93;;;;;;;11.75;43.66;97445.78;5011508;28;20431;-67
2021/03/31 04:11:37;;;;;;;14.30;8.40;;;;;;;11.63;43.84;97447.84;5010311;28;20189;-68
2021/03/31 04:14:03;;;;;;;13.13;7.47;;;;;;;11.63;43.71;97441.78;5009075;28;20726;-69
2021/03/31 04:16:33;;;;;;;16.47;7.17;;;;;;;11.72;43.89;97445.28;5008277;28;20423;-68
2021/03/31 04:19:03;;;;;;;15.70;7.73;;;;;;;11.79;43.61;97443.69;4993961;28;20412;-67
2021/03/31 04:21:34;;;;;;;13.13;7.70;;;;;;;11.80;43.21;97448.78;5008760;28;20451;-69
2021/03/31 04:24:00;;;;;;;14.10;8.40;;;;;;;11.76;43.69;97442.19;4992767;28;20458;-68
2021/03/31 04:26:26;;;;;;;22.60;9.37;;;;;;;11.78;43.44;97444.69;5010170;28;20431;-69
2021/03/31 04:28:52;;;;;;;17.37;9.20;;;;;;;11.67;43.94;97443.13;5010625;28;20199;-68
2021/03/31 04:31:19;;;;;;;22.47;11.10;;;;;;;11.69;43.83;97438.53;5008485;28;20419;-69
2021/03/31 04:33:45;;;;;;;27.13;12.43;;;;;;;11.74;43.71;97435.47;5009118;28;20601;-67
2021/03/31 04:36:11;;;;;;;23.90;13.10;;;;;;;11.81;43.66;97444.34;5009089;28;20518;-69
2021/03/31 04:38:43;;;;;;;24.97;13.17;;;;;;;11.82;43.25;97436.34;5012933;28;20423;-67
2021/03/31 04:41:10;;;;;;;26.63;13.73;;;;;;;11.77;43.66;97441.22;5013097;28;20633;-67
2021/03/31 04:43:35;;;;;;;28.27;14.30;;;;;;;11.87;43.20;97445.53;5015044;28;20451;-66
2021/03/31 04:46:02;;;;;;;28.83;15.73;;;;;;;11.82;43.73;97441.59;5009975;28;20427;-67
2021/03/31 04:48:28;;;;;;;32.13;15.30;;;;;;;11.86;43.49;97446.50;5010412;28;20215;-66
2021/03/31 04:50:54;;;;;;;26.60;13.53;;;;;;;11.79;44.00;97446.31;5008033;28;20424;-66
2021/03/31 04:53:20;;;;;;;27.40;11.50;;;;;;;11.90;43.39;97447.84;5009080;28;20687;-66
2021/03/31 04:55:45;;;;;;;33.10;10.40;;;;;;;11.94;43.28;97446.59;5010338;28;20547;-67
2021/03/31 04:58:12;;;;;;;25.47;9.50;;;;;;;11.97;43.03;97448.91;5015126;28;20192;-66
2021/03/31 05:00:37;;;;;;;18.80;8.53;;;;;;;11.97;43.06;97448.91;5013764;28;20347;-66
2021/03/31 05:03:04;;;;;;;23.37;8.63;;;;;;;11.99;43.02;97449.56;5013371;28;20565;-67
2021/03/31 05:05:30;;;;;;;18.33;8.20;;;;;;;12.03;42.57;97443.03;5013711;28;20434;-68
2021/03/31 05:07:55;;;;;;;11.93;7.70;;;;;;;12.05;42.48;97451.59;5010891;28;20791;-68
2021/03/31 05:10:21;;;;;;;15.33;8.70;;;;;;;11.98;42.64;97440.88;5011265;28;20243;-66
2021/03/31 05:12:47;;;;;;;37.93;17.73;;;;;;;11.94;43.24;97449.22;4980109;28;20647;-67
2021/03/31 05:15:13;;;;;;;25.47;14.07;;;;;;;11.93;43.21;97447.56;5013960;28;20191;-68
2021/03/31 05:17:38;;;;;;;16.20;8.93;;;;;;;11.89;42.78;97441.78;5020290;28;20180;-68
2021/03/31 05:20:05;;;;;;;16.90;9.00;;;;;;;11.94;42.64;97447.41;5030147;28;20192;-67
2021/03/31 05:22:30;;;;;;;14.87;8.40;;;;;;;11.94;42.79;97443.94;5033284;28;20817;-67
2021/03/31 05:24:56;;;;;;;14.13;8.77;;;;;;;11.91;42.71;97445.06;5033326;28;20441;-67
2021/03/31 05:27:22;;;;;;;17.80;9.00;;;;;;;11.98;42.85;97442.69;5032964;28;20184;-68
2021/03/31 05:29:48;;;;;;;24.50;8.20;;;;;;;12.09;42.69;97434.56;5032639;28;20263;-68
2021/03/31 05:32:13;;;;;;;17.47;8.50;;;;;;;12.21;42.66;97432.47;5033228;28;20508;-67
2021/03/31 05:34:39;;;;;;;22.93;8.80;;;;;;;12.24;42.46;97431.31;5033244;28;20236;-68
2021/03/31 05:37:05;;;;;;;20.53;8.30;;;;;;;12.35;42.19;97428.41;5032927;28;20865;-68
2021/03/31 05:39:31;;;;;;;22.40;9.47;;;;;;;12.44;42.20;97435.38;5015135;28;20547;-68
2021/03/31 05:41:56;;;;;;;14.10;8.33;;;;;;;12.54;42.02;97429.97;5032663;28;20466;-67
2021/03/31 05:44:22;;;;;;;18.30;8.40;;;;;;;12.60;41.68;97423.28;5031022;28;20187;-68
2021/03/31 05:46:50;;;;;;;15.93;8.93;;;;;;;12.71;41.70;97422.97;5026090;28;20293;-67
2021/03/31 05:49:16;;;;;;;20.80;9.60;;;;;;;12.83;41.36;97427.91;5029273;28;20195;-68
2021/03/31 05:51:42;;;;;;;18.80;8.83;;;;;;;12.86;40.70;97420.53;5032355;28;20509;-67
2021/03/31 05:54:08;;;;;;;26.30;8.70;;;;;;;13.03;41.14;97426.63;5031525;28;20434;-65
2021/03/31 05:56:34;;;;;;;29.10;9.10;;;;;;;13.15;40.56;97410.53;5032262;28;20630;-66
2021/03/31 05:59:09;;;;;;;14.73;8.70;;;;;;;13.27;40.12;97413.66;5024169;28;20430;-69
2021/03/31 06:01:36;;;;;;;17.50;9.33;;;;;;;13.44;39.93;97414.50;5027896;28;20199;-67
2021/03/31 06:04:02;;;;;;;24.60;10.10;;;;;;;13.58;39.60;97405.94;5031742;28;20457;-68
2021/03/31 06:06:28;;;;;;;18.53;8.90;;;;;;;13.62;39.12;97401.97;5031533;28;20422;-67
2021/03/31 06:08:55;;;;;;;26.20;9.00;;;;;;;13.79;39.04;97407.22;5031145;28;20179;-68
2021/03/31 06:11:22;;;;;;;23.33;8.67;;;;;;;13.82;38.64;97407.69;5030585;28;20246;-68
2021/03/31 06:14:00;;;;;;;17.70;8.77;;;;;;;13.93;38.52;97409.16;5031371;28;20957;-69
2021/03/31 06:16:33;;;;;;;21.50;8.47;;;;;;;14.12;38.52;97407.97;5032413;28;20430;-69
2021/03/31 06:19:19;;;;;;;21.60;9.77;;;;;;;14.32;37.86;97399.63;5029036;28;20480;-68
2021/03/31 06:22:15;;;;;;;23.10;8.18;;;;;;;14.58;37.53;97406.44;5031195;28;20445;-68
2021/03/31 06:24:48;;;;;;;28.33;8.90;;;;;;;14.82;36.68;97407.31;5026274;28;20195;-68
2021/03/31 06:27:14;;;;;;;17.50;8.83;;;;;;;15.04;36.09;97410.97;5016291;28;20427;-68
2021/03/31 06:30:01;;;;;;;20.47;8.67;;;;;;;15.31;35.75;97408.81;5029396;28;20430;-69
2021/03/31 06:32:36;;;;;;;24.70;9.67;;;;;;;15.76;35.21;97412.34;5020614;28;20584;-69
2021/03/31 06:35:03;;;;;;;16.57;8.53;;;;;;;16.44;33.58;97406.22;5016314;28;20500;-69
2021/03/31 06:37:35;;;;;;;19.00;8.03;;;;;;;17.23;32.14;97404.63;5012102;28;20431;-68
2021/03/31 06:40:01;;;;;;;16.63;8.47;;;;;;;17.85;31.48;97406.72;5029494;28;20415;-69
2021/03/31 06:42:46;;;;;;;19.93;9.27;;;;;;;18.04;31.05;97399.91;5029217;28;20979;-69
2021/03/31 06:45:19;;;;;;;14.37;7.67;;;;;;;17.87;31.19;97397.56;5022071;28;20942;-68
2021/03/31 06:50:15;;;;;;;12.53;7.90;;;;;;;17.35;32.04;97402.25;5029972;28;20987;-70
2021/03/31 06:53:13;;;;;;;13.03;7.70;;;;;;;16.98;32.88;97397.06;5031361;28;20438;-68
2021/03/31 06:55:39;;;;;;;19.23;9.67;;;;;;;16.74;33.08;97396.38;5000699;28;20450;-66
2021/03/31 06:58:07;;;;;;;14.70;8.00;;;;;;;16.64;33.67;97406.41;5003928;28;20946;-69
2021/03/31 07:00:34;;;;;;;16.43;10.30;;;;;;;16.61;33.55;97395.41;4991849;28;20699;-68
2021/03/31 07:03:03;;;;;;;25.43;10.90;;;;;;;16.59;33.75;97403.53;4986693;28;20451;-67
2021/03/31 07:05:33;;;;;;;17.13;8.50;;;;;;;16.65;33.88;97408.06;4988430;28;20435;-68
2021/03/31 07:08:04;;;;;;;30.53;13.10;;;;;;;16.70;33.64;97403.03;4975540;28;20425;-69
2021/03/31 07:10:41;;;;;;;21.30;9.00;;;;;;;16.75;33.76;97407.78;4992076;28;20420;-67
2021/03/31 07:13:06;;;;;;;16.20;9.63;;;;;;;16.87;33.58;97395.69;5001428;28;20446;-67
2021/03/31 07:15:32;;;;;;;15.50;8.13;;;;;;;17.01;33.42;97396.66;5008134;28;20846;-68
2021/03/31 07:17:59;;;;;;;18.47;8.50;;;;;;;17.20;33.23;97399.69;4991443;28;20270;-68
2021/03/31 07:20:27;;;;;;;14.83;7.80;;;;;;;17.32;33.05;97398.19;4989205;28;20219;-68
2021/03/31 07:22:53;;;;;;;20.63;8.27;;;;;;;17.37;32.93;97389.66;4991365;28;20538;-69
2021/03/31 07:25:22;;;;;;;15.90;8.23;;;;;;;17.47;32.93;97402.56;5008128;28;20502;-68
2021/03/31 07:27:49;;;;;;;19.20;10.97;;;;;;;17.52;33.00;97396.69;5008313;28;20485;-68
2021/03/31 07:30:22;;;;;;;13.30;8.33;;;;;;;17.63;32.88;97401.47;5009913;28;20459;-67
2021/03/31 07:32:51;;;;;;;20.03;8.67;;;;;;;17.76;32.71;97403.41;5030198;28;20486;-69
2021/03/31 07:35:20;;;;;;;12.40;8.20;;;;;;;17.88;32.49;97396.56;5030007;28;20437;-69
2021/03/31 07:37:46;;;;;;;16.13;7.90;;;;;;;18.06;32.30;97397.91;5030375;28;20422;-69
2021/03/31 07:40:14;;;;;;;16.43;8.07;;;;;;;18.24;32.23;97400.88;5028666;28;20452;-69
2021/03/31 07:43:08;;;;;;;18.23;10.90;;;;;;;18.37;32.08;97404.59;5022875;28;20439;-68
2021/03/31 07:45:38;;;;;;;16.83;7.97;;;;;;;18.55;32.03;97399.56;5024176;28;20430;-69
2021/03/31 07:48:05;;;;;;;14.90;9.20;;;;;;;18.76;31.70;97400.44;5028530;28;20441;-68
2021/03/31 07:50:32;;;;;;;12.90;8.20;;;;;;;19.06;31.28;97397.47;5028594;28;20513;-68
2021/03/31 07:53:02;;;;;;;14.63;8.47;;;;;;;19.20;30.85;97398.31;5024051;28;20439;-68
2021/03/31 07:55:35;;;;;;;15.10;8.67;;;;;;;19.44;30.20;97394.22;5028277;28;20513;-68
2021/03/31 07:58:16;;;;;;;15.53;7.87;;;;;;;19.57;30.02;97393.41;5025807;28;20446;-68
2021/03/31 08:00:49;;;;;;;15.57;9.67;;;;;;;19.73;28.79;97380.69;5027645;28;20462;-68
2021/03/31 08:03:28;;;;;;;17.07;9.50;;;;;;;20.08;28.70;97391.94;5013866;28;20462;-69
2021/03/31 08:06:09;;;;;;;15.90;10.27;;;;;;;19.68;28.38;97389.31;5030180;28;20496;-66
2021/03/31 08:08:45;;;;;;;17.37;10.10;;;;;;;20.19;27.13;97386.97;5029727;28;20572;-68
2021/03/31 08:11:31;;;;;;;14.40;9.87;;;;;;;20.42;26.73;97381.97;5012555;28;20422;-68
2021/03/31 08:13:56;;;;;;;15.13;8.13;;;;;;;20.43;25.96;97382.81;5029831;28;20478;-69
2021/03/31 08:16:33;;;;;;;15.63;9.10;;;;;;;20.68;25.41;97388.22;5029632;28;20992;-68
2021/03/31 08:19:00;;;;;;;14.50;9.80;;;;;;;21.18;25.27;97384.03;5026853;28;20843;-66
2021/03/31 08:21:28;;;;;;;14.20;9.00;;;;;;;21.05;25.36;97386.78;5025376;28;20467;-68
2021/03/31 08:23:55;;;;;;;14.23;9.27;;;;;;;21.29;24.88;97386.03;5027306;28;20821;-68
2021/03/31 08:26:34;;;;;;;17.30;9.43;;;;;;;20.97;25.26;97390.56;5029545;28;21066;-69
2021/03/31 08:29:04;;;;;;;15.77;9.40;;;;;;;21.04;24.94;97390.50;5029762;28;20433;-69
2021/03/31 08:31:41;;;;;;;17.90;9.27;;;;;;;20.77;25.34;97391.47;5028085;28;20433;-69
2021/03/31 08:34:11;;;;;;;15.70;8.97;;;;;;;20.70;25.14;97391.47;5032401;28;20448;-69
2021/03/31 08:36:38;;;;;;;15.40;8.70;;;;;;;21.51;24.79;97374.97;5033496;28;20909;-69
2021/03/31 08:39:06;;;;;;;16.37;9.63;;;;;;;21.30;24.88;97384.97;5033434;28;20519;-68
2021/03/31 08:41:32;;;;;;;19.63;8.30;;;;;;;21.21;25.16;97386.28;5033286;28;20511;-68
2021/03/31 08:44:22;;;;;;;12.50;8.53;;;;;;;21.85;24.76;97386.19;5033822;28;20454;-70
2021/03/31 08:46:47;;;;;;;16.30;8.47;;;;;;;22.16;24.16;97387.09;5017532;28;20777;-69
2021/03/31 08:49:40;;;;;;;17.33;8.43;;;;;;;22.55;23.47;97379.69;5033689;28;20517;-69
2021/03/31 08:52:08;;;;;;;20.03;8.50;;;;;;;22.38;23.75;97368.75;5030711;28;20199;-68
2021/03/31 08:54:50;;;;;;;15.33;8.27;;;;;;;22.46;23.82;97373.00;5033013;28;20486;-68
2021/03/31 08:57:15;;;;;;;13.13;7.23;;;;;;;22.17;24.25;97367.38;5017806;28;20796;-69
2021/03/31 08:59:47;;;;;;;15.73;8.33;;;;;;;22.27;24.00;97372.16;5029750;28;20426;-68
2021/03/31 09:02:17;;;;;;;16.97;7.53;;;;;;;21.82;24.19;97375.94;5017751;28;20223;-69
2021/03/31 09:04:43;;;;;;;14.50;7.70;;;;;;;22.14;23.88;97370.50;5032977;28;20799;-69
2021/03/31 09:07:11;;;;;;;15.83;8.10;;;;;;;22.27;23.88;97369.50;5031964;28;20441;-69
2021/03/31 09:09:38;;;;;;;17.03;8.70;;;;;;;22.42;23.33;97371.00;5025129;28;20185;-69
2021/03/31 09:12:06;;;;;;;12.30;7.10;;;;;;;23.09;23.01;97360.22;5031753;28;20444;-69
2021/03/31 09:14:33;;;;;;;12.23;8.50;;;;;;;22.48;23.26;97365.59;5033211;28;20491;-69
2021/03/31 09:17:03;;;;;;;15.23;7.70;;;;;;;23.35;22.25;97355.53;5032238;28;20422;-68
2021/03/31 09:19:35;;;;;;;11.40;6.73;;;;;;;23.48;22.25;97351.81;5031022;28;20423;-66
2021/03/31 09:22:06;;;;;;;10.87;7.47;;;;;;;23.62;22.09;97355.06;5031196;28;20469;-68
2021/03/31 09:24:31;;;;;;;12.00;7.40;;;;;;;23.96;21.68;97354.50;5032653;28;20988;-69
2021/03/31 09:26:58;;;;;;;15.83;7.37;;;;;;;24.19;21.90;97357.13;5031821;28;20537;-67
2021/03/31 09:29:25;;;;;;;12.90;6.87;;;;;;;24.38;21.01;97355.09;5032873;28;20610;-68
2021/03/31 09:31:51;;;;;;;16.33;7.00;;;;;;;24.26;20.69;97354.31;5030822;28;20767;-69
2021/03/31 09:34:17;;;;;;;14.63;7.43;;;;;;;24.47;20.79;97354.69;5025951;28;20461;-69
2021/03/31 09:37:08;;;;;;;12.87;6.70;;;;;;;25.07;20.65;97349.94;5032477;28;20796;-67
2021/03/31 09:39:54;;;;;;;14.43;7.53;;;;;;;24.91;21.08;97352.34;5032718;28;20924;-70
2021/03/31 09:42:28;;;;;;;17.63;7.57;;;;;;;25.41;21.16;97348.06;5018600;28;20462;-68
2021/03/31 09:44:54;;;;;;;10.23;6.80;;;;;;;25.27;21.05;97344.88;5030922;28;20984;-68
2021/03/31 09:47:21;;;;;;;13.80;6.60;;;;;;;25.59;21.05;97338.94;5028731;28;20644;-67
2021/03/31 09:49:54;;;;;;;17.37;7.60;;;;;;;25.82;21.41;97339.81;5029054;28;20595;-69
2021/03/31 09:52:25;;;;;;;12.87;6.90;;;;;;;26.39;21.57;97334.34;5030980;28;20488;-70
2021/03/31 09:54:50;;;;;;;15.90;9.53;;;;;;;26.40;21.27;97334.09;5031830;28;20426;-69
2021/03/31 09:57:16;;;;;;;19.03;10.40;;;;;;;25.47;23.30;97327.50;5032084;28;20505;-69
2021/03/31 09:59:42;;;;;;;24.97;8.07;;;;;;;24.98;24.41;97331.53;5027107;28;20188;-69
2021/03/31 10:02:09;;;;;;;17.00;8.17;;;;;;;25.08;24.30;97324.72;5029353;28;20839;-68
2021/03/31 10:04:40;;;;;;;13.67;7.70;;;;;;;25.17;24.01;97325.97;5032419;28;20191;-69
2021/03/31 10:07:16;;;;;;;23.57;11.43;;;;;;;24.95;23.95;97329.34;5032648;28;20430;-69
2021/03/31 10:09:50;;;;;;;12.33;7.37;;;;;;;25.29;23.26;97317.81;5028734;28;20426;-69
2021/03/31 10:12:30;;;;;;;10.80;7.03;;;;;;;25.83;22.85;97319.97;5017370;28;20533;-68
2021/03/31 10:14:57;;;;;;;17.23;7.47;;;;;;;26.10;21.84;97315.72;5032005;28;20422;-69
2021/03/31 10:17:25;;;;;;;16.13;7.47;;;;;;;25.89;22.29;97315.47;5031343;28;20510;-69
2021/03/31 10:19:51;;;;;;;18.83;7.63;;;;;;;26.15;21.86;97308.56;5027456;28;20435;-70
2021/03/31 10:22:17;;;;;;;13.77;6.60;;;;;;;26.07;22.17;97312.47;5027519;28;20485;-69
2021/03/31 10:24:45;;;;;;;14.10;8.70;;;;;;;26.04;22.63;97309.47;5031986;28;20444;-69
2021/03/31 10:27:13;;;;;;;12.87;7.60;;;;;;;26.14;21.72;97309.63;5031599;28;20434;-69
2021/03/31 10:29:53;;;;;;;14.17;8.10;;;;;;;25.95;22.26;97309.09;5032054;28;20434;-69
2021/03/31 10:32:20;;;;;;;21.47;7.57;;;;;;;26.02;21.20;97304.34;5017232;28;20442;-69
2021/03/31 10:34:48;;;;;;;19.73;7.60;;;;;;;26.12;21.33;97309.06;5021366;28;20428;-69
2021/03/31 10:37:27;;;;;;;14.97;8.33;;;;;;;25.94;21.46;97302.09;5030520;28;20505;-68
2021/03/31 10:50:36;;;;;;;20.03;8.50;;;;;;;25.65;23.91;97298.78;5007085;28;20415;-70
2021/03/31 10:53:02;;;;;;;18.93;9.37;;;;;;;25.35;24.28;97291.88;5013351;28;20479;-69
2021/03/31 10:55:27;;;;;;;17.27;8.03;;;;;;;25.61;23.27;97293.09;5030577;28;20480;-68
2021/03/31 10:57:54;;;;;;;15.70;8.80;;;;;;;25.70;24.19;97290.81;5025214;28;20176;-69
2021/03/31 11:00:20;;;;;;;17.43;8.27;;;;;;;26.15;22.80;97291.66;5030167;28;20179;-70
2021/03/31 11:02:45;;;;;;;14.10;8.73;;;;;;;26.60;22.64;97287.00;5031257;28;20529;-69
2021/03/31 11:05:11;;;;;;;17.50;9.90;;;;;;;26.70;21.84;97280.91;5031733;28;20541;-69
2021/03/31 11:07:36;;;;;;;22.40;12.07;;;;;;;26.76;21.91;97275.34;5030996;28;20183;-71
2021/03/31 11:10:03;;;;;;;32.23;14.43;;;;;;;26.95;22.01;97275.00;5029691;28;20223;-69
2021/03/31 11:12:29;;;;;;;20.53;9.20;;;;;;;27.32;21.23;97276.03;5031170;28;20305;-69
2021/03/31 11:14:56;;;;;;;16.03;8.93;;;;;;;26.60;22.18;97271.69;5031007;28;20426;-68
2021/03/31 11:27:57;;;;;;;20.43;10.03;;;;;;;26.88;21.37;97260.94;5030918;28;20438;-68
2021/03/31 11:30:23;;;;;;;19.40;9.87;;;;;;;26.94;21.54;97254.53;5029771;28;20513;-68
2021/03/31 11:32:48;;;;;;;16.87;10.10;;;;;;;27.44;20.56;97256.00;5020840;28;20265;-70
2021/03/31 11:35:14;;;;;;;15.33;8.90;;;;;;;27.68;20.60;97258.25;5030928;28;20499;-68
2021/03/31 11:37:40;;;;;;;17.53;9.70;;;;;;;27.26;20.51;97251.00;5029038;28;20601;-69
2021/03/31 11:40:07;;;;;;;20.90;10.10;;;;;;;27.40;20.68;97252.16;5029799;28;20529;-69
2021/03/31 11:42:33;;;;;;;19.17;9.60;;;;;;;27.34;20.46;97247.84;5028930;28;20543;-69
2021/03/31 11:44:58;;;;;;;13.77;9.40;;;;;;;27.64;19.58;97249.06;5029668;28;20435;-70
2021/03/31 11:47:24;;;;;;;24.37;9.60;;;;;;;27.79;19.50;97244.84;5029274;28;20191;-68
2021/03/31 11:49:49;;;;;;;24.13;10.97;;;;;;;28.43;18.98;97240.19;5030287;28;20651;-69
2021/03/31 11:52:15;;;;;;;18.50;10.30;;;;;;;28.58;18.42;97232.13;5021754;28;20659;-69
2021/03/31 11:54:41;;;;;;;15.43;10.27;;;;;;;28.43;18.90;97234.81;5029729;28;20188;-70
2021/03/31 11:57:07;;;;;;;31.90;10.63;;;;;;;28.25;18.79;97233.44;5030410;28;20524;-70